Time;durP1;ratioP1;P1;durP2;ratioP2;P2;SDS_P1;SDS_P2;PMS_P1;PMS_P2;Temp;Humidity;BMP_temperature;BMP_pressure;BME280_temperature;BME280_humidity;BME280_pressure;Samples;Min_cycle;Max_cycle;Signal;HPM_P1;HPM_P2
2022/10/21 00:00:17;;;;;;;3.12;2.37;;;;;;;4.70;62.40;100297.81;1772657;80;21882;-41
2022/10/21 00:02:44;;;;;;;5.62;2.50;;;;;;;4.66;62.47;100296.02;1772397;81;21031;-41
2022/10/21 00:05:13;;;;;;;3.60;2.62;;;;;;;4.55;62.45;100300.01;1772841;81;20968;-41
2022/10/21 00:07:41;;;;;;;3.60;2.20;;;;;;;4.45;62.69;100297.50;1772569;80;21022;-41
2022/10/21 00:10:09;;;;;;;4.53;2.10;;;;;;;4.49;62.89;100297.16;1772554;81;21005;-40
2022/10/21 00:12:36;;;;;;;3.77;2.30;;;;;;;4.54;62.82;100303.23;1772371;81;23117;-41
2022/10/21 00:15:07;;;;;;;3.50;2.47;;;;;;;4.57;62.87;100308.00;1797781;79;20983;-40
2022/10/21 00:17:38;;;;;;;3.45;2.40;;;;;;;4.60;62.81;100303.95;1797893;79;21957;-40
2022/10/21 00:20:07;;;;;;;5.22;2.58;;;;;;;4.62;62.60;100307.91;1797312;79;21078;-41
2022/10/21 00:22:34;;;;;;;4.37;2.73;;;;;;;4.60;62.41;100303.95;1798481;79;21055;-40
2022/10/21 00:25:00;;;;;;;5.83;2.90;;;;;;;4.55;62.35;100308.83;1797899;79;21228;-41
2022/10/21 00:27:27;;;;;;;5.30;3.10;;;;;;;4.40;62.51;100311.02;1797891;79;20971;-41
2022/10/21 00:29:54;;;;;;;4.85;3.00;;;;;;;4.32;62.87;100310.59;1798104;79;21039;-41
2022/10/21 00:32:21;;;;;;;5.83;3.30;;;;;;;4.29;62.91;100312.52;1798020;79;20967;-41
2022/10/21 00:34:48;;;;;;;4.08;2.92;;;;;;;4.18;62.91;100310.30;1798063;79;21047;-41
2022/10/21 00:37:16;;;;;;;4.65;3.00;;;;;;;4.09;63.27;100306.69;1797942;79;21223;-41
2022/10/21 00:39:44;;;;;;;5.03;3.10;;;;;;;4.05;63.41;100313.73;1797885;79;20904;-41
2022/10/21 00:42:18;;;;;;;4.30;3.02;;;;;;;3.94;63.63;100307.19;1797743;79;21049;-40
2022/10/21 00:45:05;;;;;;;5.17;3.08;;;;;;;3.92;63.76;100305.90;1797731;79;21801;-40
2022/10/21 00:47:48;;;;;;;5.40;3.00;;;;;;;3.95;63.81;100309.33;1797625;79;21027;-40
2022/10/21 00:50:41;;;;;;;5.25;3.05;;;;;;;4.05;63.97;100304.34;1797841;79;21216;-40
2022/10/21 00:53:11;;;;;;;5.45;3.12;;;;;;;4.06;63.94;100296.55;1796831;79;20920;-40
2022/10/21 00:55:42;;;;;;;3.80;3.00;;;;;;;4.08;63.93;100297.84;1798144;79;20976;-41
2022/10/21 00:58:09;;;;;;;4.47;3.30;;;;;;;4.11;63.72;100295.13;1797659;79;21547;-40
2022/10/21 01:00:36;;;;;;;4.25;2.95;;;;;;;4.12;63.63;100291.33;1768825;79;21039;-40
2022/10/21 01:03:03;;;;;;;4.70;3.33;;;;;;;4.11;63.50;100289.77;1797763;79;23166;-40
2022/10/21 01:05:30;;;;;;;4.28;3.10;;;;;;;4.13;63.41;100292.93;1797519;79;21561;-41
2022/10/21 01:07:58;;;;;;;4.55;3.10;;;;;;;4.14;63.29;100299.36;1797805;79;20988;-41
2022/10/21 01:10:25;;;;;;;4.60;3.20;;;;;;;4.11;63.09;100303.98;1797875;79;20964;-41
2022/10/21 01:13:19;;;;;;;4.40;3.02;;;;;;;4.06;63.16;100303.27;1769211;79;21509;-41
2022/10/21 01:15:58;;;;;;;5.55;2.77;;;;;;;4.04;63.25;100308.11;1812764;79;21570;-40
2022/10/21 01:18:36;;;;;;;;;;;;;;;4.00;63.35;100310.59;1819615;78;20956;-40
2022/10/21 01:21:33;;;;;;;6.37;2.83;;;;;;;3.96;63.37;100314.15;1816715;78;20148;-40
2022/10/21 01:24:59;;;;;;;6.62;3.40;;;;;;;3.78;63.67;100319.22;1816778;79;21606;-40
2022/10/21 01:29:22;;;;;;;5.28;3.10;;;;;;;3.84;63.85;100320.75;1797033;79;23058;-40
2022/10/21 01:32:18;;;;;;;7.25;3.05;;;;;;;3.82;63.90;100333.67;1756874;81;22052;-39
2022/10/21 01:35:16;;;;;;;6.25;3.08;;;;;;;3.88;63.80;100316.93;1757017;81;21414;-40
2022/10/21 01:38:05;;;;;;;5.60;3.15;;;;;;;3.88;63.75;100312.37;1756976;81;20968;-40
2022/10/21 01:40:55;;;;;;;7.05;3.12;;;;;;;3.90;63.82;100315.57;1757161;81;20942;-40
2022/10/21 01:43:37;;;;;;;5.53;3.35;;;;;;;3.91;63.76;100315.83;1757256;81;20993;-40
2022/10/21 01:46:12;;;;;;;4.45;2.83;;;;;;;3.87;63.70;100312.68;1697099;83;20932;-40
2022/10/21 01:48:45;;;;;;;6.72;2.80;;;;;;;3.84;63.83;100310.56;1723618;83;21202;-39
2022/10/21 01:51:12;;;;;;;5.50;3.00;;;;;;;3.86;63.80;100312.42;1723923;83;20924;-39
2022/10/21 01:53:50;;;;;;;5.03;2.95;;;;;;;3.87;63.79;100314.02;1723458;83;21003;-39
2022/10/21 01:56:16;;;;;;;5.30;2.95;;;;;;;3.88;63.67;100307.00;1723317;83;21031;-39
2022/10/21 01:58:44;;;;;;;10.25;3.25;;;;;;;3.87;63.60;100304.06;1723178;83;21067;-39
2022/10/21 02:01:11;;;;;;;5.33;3.15;;;;;;;3.88;63.72;100312.91;1723121;83;21149;-39
2022/10/21 02:03:41;;;;;;;5.58;3.37;;;;;;;3.88;63.53;100316.93;1694806;83;21007;-40
2022/10/21 02:06:08;;;;;;;5.70;3.42;;;;;;;3.82;63.49;100312.22;1718277;83;20959;-39
2022/10/21 02:08:35;;;;;;;7.35;3.25;;;;;;;3.78;63.50;100312.52;1694401;83;21004;-40
2022/10/21 02:11:05;;;;;;;7.28;3.33;;;;;;;3.80;63.50;100321.63;1694587;83;21040;-40
2022/10/21 02:13:43;;;;;;;4.12;2.80;;;;;;;3.87;63.47;100322.84;1694678;83;21208;-39
2022/10/21 02:16:15;;;;;;;7.47;3.52;;;;;;;3.93;63.38;100324.36;1723043;83;20949;-39
2022/10/21 02:18:43;;;;;;;5.62;3.10;;;;;;;3.97;63.29;100319.20;1722933;83;21094;-39
2022/10/21 02:21:15;;;;;;;4.58;2.65;;;;;;;4.01;63.20;100316.75;1723011;83;21076;-39
2022/10/21 02:23:58;;;;;;;5.05;2.80;;;;;;;4.04;63.12;100310.80;1723068;83;21061;-39
2022/10/21 02:26:26;;;;;;;7.20;3.27;;;;;;;4.06;62.95;100308.63;1723124;83;21307;-39
2022/10/21 02:28:53;;;;;;;4.47;3.00;;;;;;;4.05;62.77;100309.71;1716030;83;20999;-40
2022/10/21 02:31:50;;;;;;;7.12;2.92;;;;;;;4.04;62.79;100320.19;1715721;83;20976;-39
2022/10/21 02:34:34;;;;;;;6.08;2.75;;;;;;;4.03;62.83;100326.09;1715574;83;21015;-40
2022/10/21 02:37:19;;;;;;;4.42;3.05;;;;;;;3.92;62.55;100334.84;1715648;83;21040;-39
2022/10/21 02:39:53;;;;;;;4.80;2.92;;;;;;;3.75;62.83;100337.78;1714776;83;21241;-39
2022/10/21 02:42:24;;;;;;;6.30;3.20;;;;;;;3.68;63.13;100340.82;1714869;83;21483;-40
2022/10/21 02:44:51;;;;;;;4.75;2.87;;;;;;;3.66;63.27;100347.03;1714794;83;21688;-40
2022/10/21 02:47:18;;;;;;;4.85;3.05;;;;;;;3.66;63.34;100344.35;1715056;83;21652;-40
2022/10/21 02:49:46;;;;;;;5.67;3.15;;;;;;;3.65;63.33;100346.77;1714743;83;20984;-39
2022/10/21 02:52:13;;;;;;;4.35;2.87;;;;;;;3.64;63.36;100352.41;1714829;83;21151;-39
2022/10/21 02:54:39;;;;;;;3.50;2.87;;;;;;;3.68;63.31;100359.59;1714818;83;21072;-39
2022/10/21 02:57:07;;;;;;;4.97;3.05;;;;;;;3.75;63.21;100364.61;1714784;83;21025;-39
2022/10/21 02:59:34;;;;;;;5.25;3.10;;;;;;;3.82;63.20;100355.13;1714759;83;21000;-40
2022/10/21 03:02:01;;;;;;;6.58;2.85;;;;;;;3.86;63.14;100353.45;1714932;83;21546;-40
2022/10/21 03:04:28;;;;;;;4.25;2.95;;;;;;;3.89;63.00;100348.84;1714778;83;21133;-40
2022/10/21 03:06:56;;;;;;;4.28;3.30;;;;;;;3.92;62.93;100356.87;1714653;83;21068;-40
2022/10/21 03:09:23;;;;;;;5.00;2.98;;;;;;;3.94;62.85;100355.47;1714879;83;21526;-40
2022/10/21 03:11:51;;;;;;;4.78;2.70;;;;;;;3.94;62.73;100360.84;1714785;83;21275;-39
2022/10/21 03:14:18;;;;;;;5.60;3.02;;;;;;;3.89;62.60;100358.23;1715084;83;20989;-39
2022/10/21 03:16:44;;;;;;;5.00;3.00;;;;;;;3.82;62.69;100365.86;1714855;83;21145;-39
2022/10/21 03:19:11;;;;;;;6.42;3.40;;;;;;;3.77;62.92;100360.56;1714934;83;21000;-39
2022/10/21 03:21:39;;;;;;;5.90;3.33;;;;;;;3.75;63.02;100352.54;1714741;83;21086;-40
2022/10/21 03:24:06;;;;;;;7.33;3.22;;;;;;;3.73;63.09;100344.77;1714788;83;21036;-39
2022/10/21 03:26:33;;;;;;;5.53;3.30;;;;;;;3.72;62.95;100343.20;1714836;83;21032;-40
2022/10/21 03:29:00;;;;;;;5.53;3.40;;;;;;;3.71;63.09;100338.92;1708200;83;21240;-39
2022/10/21 03:31:27;;;;;;;6.58;3.12;;;;;;;3.68;63.06;100335.45;1707166;84;21004;-39
2022/10/21 03:33:53;;;;;;;6.37;3.67;;;;;;;3.67;63.05;100347.30;1706915;84;21066;-39
2022/10/21 03:36:20;;;;;;;7.55;3.37;;;;;;;3.57;63.20;100342.06;1707371;84;20933;-40
2022/10/21 03:38:47;;;;;;;4.20;3.10;;;;;;;3.52;63.43;100336.77;1707775;84;21555;-39
2022/10/21 03:41:14;;;;;;;5.15;3.47;;;;;;;3.55;63.61;100339.41;1743351;81;21132;-39
2022/10/21 03:43:41;;;;;;;8.90;3.62;;;;;;;3.53;63.71;100344.28;1707574;83;20901;-39
2022/10/21 03:46:07;;;;;;;6.80;4.15;;;;;;;3.54;63.95;100350.67;1707676;84;20961;-39
2022/10/21 03:48:34;;;;;;;7.12;4.10;;;;;;;3.58;63.96;100336.97;1737105;81;20974;-39
2022/10/21 03:51:02;;;;;;;5.80;3.72;;;;;;;3.62;63.73;100347.36;1699848;84;21096;-39
2022/10/21 03:53:29;;;;;;;8.75;3.98;;;;;;;3.64;63.65;100339.81;1691199;84;21260;-40
2022/10/21 03:55:55;;;;;;;6.28;3.22;;;;;;;3.65;63.45;100334.70;1694728;84;21520;-39
2022/10/21 03:58:24;;;;;;;6.53;4.03;;;;;;;3.65;63.36;100330.69;1694984;84;21081;-39
2022/10/21 04:00:53;;;;;;;5.75;3.85;;;;;;;3.64;63.40;100334.45;1695046;84;21077;-39
2022/10/21 04:03:21;;;;;;;6.67;3.83;;;;;;;3.62;63.50;100332.61;1695420;84;21126;-39
2022/10/21 04:05:47;;;;;;;5.37;3.55;;;;;;;3.62;63.54;100332.61;1695125;84;21241;-39
2022/10/21 04:08:14;;;;;;;7.55;4.08;;;;;;;3.63;63.51;100332.08;1694987;84;20962;-39
2022/10/21 04:10:41;;;;;;;5.10;3.60;;;;;;;3.62;63.35;100339.31;1695039;84;21048;-39
2022/10/21 04:13:08;;;;;;;7.50;3.67;;;;;;;3.59;63.31;100338.53;1695217;84;20977;-40
2022/10/21 04:15:36;;;;;;;6.55;3.65;;;;;;;3.55;63.40;100342.89;1694930;84;21591;-39
2022/10/21 04:18:05;;;;;;;5.28;3.20;;;;;;;3.57;63.54;100347.97;1695155;83;21547;-39
2022/10/21 04:20:32;;;;;;;6.85;3.50;;;;;;;3.53;63.68;100347.76;1694932;84;20957;-39
2022/10/21 04:23:00;;;;;;;7.55;3.35;;;;;;;3.51;63.87;100341.87;1694962;84;20961;-39
2022/10/21 04:25:27;;;;;;;5.55;3.42;;;;;;;3.56;63.92;100339.13;1694987;84;21005;-39
2022/10/21 04:27:54;;;;;;;9.35;3.60;;;;;;;3.60;63.80;100335.31;1696246;83;21112;-39
2022/10/21 04:30:22;;;;;;;6.53;3.45;;;;;;;3.62;63.64;100335.30;1710149;83;21314;-40
2022/10/21 04:32:49;;;;;;;8.38;3.20;;;;;;;3.62;63.54;100336.64;1700304;84;20960;-40
2022/10/21 04:35:17;;;;;;;6.28;3.20;;;;;;;3.55;63.50;100344.23;1710212;83;20984;-39
2022/10/21 04:37:45;;;;;;;7.60;3.50;;;;;;;3.34;63.68;100334.88;1700484;84;21056;-39
2022/10/21 04:40:12;;;;;;;6.62;4.65;;;;;;;3.13;64.00;100339.67;1710219;83;21009;-39
2022/10/21 04:42:38;;;;;;;6.62;4.22;;;;;;;3.00;64.26;100343.82;1700331;84;21088;-39
2022/10/21 04:45:08;;;;;;;11.22;5.45;;;;;;;2.95;64.40;100341.20;1710124;83;21076;-40
2022/10/21 04:47:35;;;;;;;8.73;4.10;;;;;;;2.92;64.47;100343.12;1700834;84;27090;-39
2022/10/21 04:50:02;;;;;;;7.87;4.45;;;;;;;2.91;64.69;100342.05;1710008;83;20901;-40
2022/10/21 04:52:29;;;;;;;8.00;4.45;;;;;;;2.87;64.74;100335.14;1700679;84;21048;-39
2022/10/21 04:54:56;;;;;;;7.40;4.08;;;;;;;2.80;64.90;100346.74;1710191;83;21148;-40
2022/10/21 04:57:23;;;;;;;7.75;3.65;;;;;;;2.74;65.20;100341.17;1700514;84;21036;-39
2022/10/21 04:59:50;;;;;;;6.20;4.05;;;;;;;2.65;65.39;100335.38;1710197;83;20980;-39
2022/10/21 05:02:16;;;;;;;7.50;3.90;;;;;;;2.54;65.67;100334.14;1700720;84;21044;-39
2022/10/21 05:04:43;;;;;;;6.78;3.98;;;;;;;2.45;65.87;100333.70;1710183;83;21036;-39
2022/10/21 05:07:10;;;;;;;5.20;3.50;;;;;;;2.44;66.21;100329.41;1681704;85;21230;-39
2022/10/21 05:09:37;;;;;;;19.52;10.35;;;;;;;2.43;66.36;100339.31;1700477;84;21044;-39
2022/10/21 05:12:05;;;;;;;41.35;26.68;;;;;;;2.46;66.43;100339.31;1710155;83;21518;-39
2022/10/21 05:14:32;;;;;;;62.05;43.30;;;;;;;2.52;66.40;100339.50;1700462;84;21523;-39
2022/10/21 05:16:59;;;;;;;19.52;14.15;;;;;;;2.47;66.53;100333.66;1710200;83;21060;-39
2022/10/21 05:19:26;;;;;;;7.70;5.10;;;;;;;2.50;66.63;100337.66;1700664;84;21323;-39
2022/10/21 05:21:52;;;;;;;8.25;4.53;;;;;;;2.55;66.74;100348.33;1710046;83;20937;-39
2022/10/21 05:24:20;;;;;;;5.22;3.80;;;;;;;2.48;66.89;100346.50;1700553;84;21554;-39
2022/10/21 05:26:47;;;;;;;5.25;4.05;;;;;;;2.44;67.01;100345.47;1710011;83;21032;-39
2022/10/21 05:29:15;;;;;;;6.17;4.03;;;;;;;2.43;67.18;100345.20;1710704;83;21561;-39
2022/10/21 05:31:42;;;;;;;7.90;4.70;;;;;;;2.49;67.35;100353.45;1715919;83;21279;-39
2022/10/21 05:34:09;;;;;;;8.15;5.25;;;;;;;2.56;67.17;100348.05;1720876;83;21086;-39
2022/10/21 05:36:37;;;;;;;5.95;4.20;;;;;;;2.60;67.34;100354.44;1715758;83;21621;-40
2022/10/21 05:39:04;;;;;;;52.05;32.65;;;;;;;2.61;67.52;100359.25;1691677;84;21063;-39
2022/10/21 05:41:31;;;;;;;17.23;12.25;;;;;;;2.65;67.69;100358.94;1720989;83;21035;-39
2022/10/21 05:43:58;;;;;;;6.78;5.20;;;;;;;2.73;67.80;100366.88;1702124;84;21182;-40
2022/10/21 05:46:25;;;;;;;8.50;5.00;;;;;;;2.80;67.85;100370.84;1702057;84;21029;-39
2022/10/21 05:48:52;;;;;;;11.38;9.20;;;;;;;2.84;67.71;100374.55;1702194;84;21081;-39
2022/10/21 05:51:25;;;;;;;11.38;8.30;;;;;;;2.88;67.76;100370.22;1702213;84;21042;-39
2022/10/21 05:53:47;;;;;;;12.18;8.20;;;;;;;2.99;67.75;100371.71;1719820;83;21554;-39
2022/10/21 05:56:14;;;;;;;8.68;6.50;;;;;;;3.17;67.61;100376.06;1691654;84;21145;-39
2022/10/21 05:58:41;;;;;;;7.20;4.85;;;;;;;3.29;67.68;100364.41;1691535;84;21102;-39
2022/10/21 06:01:07;;;;;;;6.70;4.62;;;;;;;3.46;67.81;100368.20;1691774;84;21588;-39
2022/10/21 06:03:34;;;;;;;14.70;10.95;;;;;;;3.62;67.41;100370.16;1691669;84;20956;-39
2022/10/21 06:06:06;;;;;;;8.40;5.92;;;;;;;3.75;67.23;100375.33;1686242;85;21651;-39
2022/10/21 06:08:34;;;;;;;20.00;13.35;;;;;;;3.77;66.72;100376.66;1702421;84;21147;-40
2022/10/21 06:11:10;;;;;;;8.40;6.35;;;;;;;3.73;66.49;100376.95;1720943;83;21011;-40
2022/10/21 06:13:37;;;;;;;6.12;4.45;;;;;;;3.69;66.89;100381.84;1691827;84;21004;-40
2022/10/21 06:16:06;;;;;;;9.48;5.33;;;;;;;3.75;66.66;100384.72;1692154;84;21039;-39
2022/10/21 06:18:34;;;;;;;7.28;5.78;;;;;;;3.80;66.56;100378.75;1691903;84;21095;-39
2022/10/21 06:21:03;;;;;;;7.55;4.60;;;;;;;3.90;66.42;100376.47;1692272;84;21131;-40
2022/10/21 06:23:29;;;;;;;38.13;20.08;;;;;;;3.95;66.29;100377.73;1691606;84;21084;-40
2022/10/21 06:26:03;;;;;;;25.43;15.68;;;;;;;3.96;66.39;100383.91;1686427;85;20952;-39
2022/10/21 06:28:31;;;;;;;9.25;6.75;;;;;;;4.00;66.29;100380.89;1700435;83;21061;-39
2022/10/21 06:30:59;;;;;;;6.65;4.83;;;;;;;4.03;66.21;100384.32;1695057;84;21029;-40
2022/10/21 06:33:25;;;;;;;9.83;6.58;;;;;;;4.07;66.02;100384.78;1695005;84;21204;-39
2022/10/21 06:35:54;;;;;;;25.08;16.60;;;;;;;4.01;65.77;100379.81;1694920;84;21004;-39
2022/10/21 06:38:22;;;;;;;7.80;5.40;;;;;;;3.93;65.97;100383.92;1695016;84;21109;-39
2022/10/21 06:40:49;;;;;;;13.50;9.10;;;;;;;3.92;66.18;100382.35;1695156;84;21769;-40
2022/10/21 06:43:16;;;;;;;23.42;13.43;;;;;;;3.92;66.25;100388.48;1695062;84;21076;-39
2022/10/21 06:45:43;;;;;;;7.37;4.80;;;;;;;3.98;66.32;100393.78;1695001;84;21101;-40
2022/10/21 06:48:12;;;;;;;7.15;5.08;;;;;;;4.00;66.27;100403.70;1694970;84;20992;-39
2022/10/21 06:50:39;;;;;;;76.10;50.37;;;;;;;3.99;66.87;100398.06;1695083;84;22177;-39
2022/10/21 06:53:05;;;;;;;35.78;23.22;;;;;;;4.00;67.09;100403.70;1694920;84;21114;-39
2022/10/21 06:55:32;;;;;;;7.97;6.20;;;;;;;4.06;67.44;100402.54;1694819;84;21488;-40
2022/10/21 06:57:59;;;;;;;11.97;8.30;;;;;;;4.12;67.63;100400.81;1694959;84;21142;-39
2022/10/21 07:00:26;;;;;;;37.15;26.25;;;;;;;4.18;67.59;100404.22;1694933;84;21549;-39
2022/10/21 07:02:53;;;;;;;10.00;5.55;;;;;;;4.24;67.53;100415.14;1695001;84;21069;-40
2022/10/21 07:05:20;;;;;;;95.10;74.67;;;;;;;4.34;67.47;100416.34;1695104;84;21045;-40
2022/10/21 07:07:48;;;;;;;25.43;20.88;;;;;;;4.40;67.47;100410.34;1695045;84;21614;-39
2022/10/21 07:10:17;;;;;;;14.47;9.28;;;;;;;4.39;67.80;100416.26;1695039;84;23190;-40
2022/10/21 07:12:45;;;;;;;6.83;4.55;;;;;;;4.43;68.01;100416.46;1694987;84;20992;-39
2022/10/21 07:15:13;;;;;;;6.08;3.92;;;;;;;4.48;68.12;100418.53;1695244;84;21037;-39
2022/10/21 07:17:42;;;;;;;9.65;6.78;;;;;;;4.57;68.43;100418.11;1695114;84;21100;-39
2022/10/21 07:20:10;;;;;;;4.90;4.10;;;;;;;4.65;68.39;100417.97;1694936;84;21137;-40
2022/10/21 07:22:37;;;;;;;8.80;4.60;;;;;;;4.76;68.61;100408.11;1694957;84;21211;-40
2022/10/21 07:25:07;;;;;;;6.53;3.87;;;;;;;4.95;68.19;100406.70;1694989;84;21538;-39
2022/10/21 07:27:35;;;;;;;5.30;3.90;;;;;;;5.07;67.73;100416.98;1695180;84;20993;-39
2022/10/21 07:30:03;;;;;;;5.62;4.12;;;;;;;5.12;67.81;100418.23;1698928;83;21077;-40
2022/10/21 07:32:30;;;;;;;6.22;3.75;;;;;;;5.16;68.02;100418.69;1710178;83;21092;-40
2022/10/21 07:34:56;;;;;;;6.45;4.42;;;;;;;5.22;68.17;100422.08;1700398;84;21250;-39
2022/10/21 07:37:23;;;;;;;6.28;4.35;;;;;;;5.27;68.51;100420.64;1710147;83;21019;-39
2022/10/21 07:39:50;;;;;;;8.90;5.05;;;;;;;5.34;68.05;100425.06;1700427;84;21285;-39
2022/10/21 07:42:17;;;;;;;5.85;3.62;;;;;;;5.43;67.61;100418.43;1710151;83;20973;-40
2022/10/21 07:44:45;;;;;;;5.67;3.33;;;;;;;5.55;67.60;100429.50;1700420;84;21065;-39
2022/10/21 07:47:12;;;;;;;10.25;6.55;;;;;;;5.67;67.43;100431.92;1710185;83;21251;-39
2022/10/21 07:49:38;;;;;;;5.35;4.25;;;;;;;5.77;67.29;100423.38;1700351;84;21488;-39
2022/10/21 07:52:05;;;;;;;4.37;3.25;;;;;;;5.82;66.98;100421.94;1710096;83;20925;-39
2022/10/21 07:54:31;;;;;;;7.03;5.40;;;;;;;5.90;66.78;100422.08;1681772;85;21088;-40
2022/10/21 07:56:58;;;;;;;5.58;3.45;;;;;;;5.93;66.49;100413.93;1700716;84;21029;-39
2022/10/21 07:59:25;;;;;;;5.05;3.25;;;;;;;5.94;66.41;100413.64;1710455;83;21618;-39
2022/10/21 08:01:52;;;;;;;7.30;6.60;;;;;;;6.01;66.64;100417.23;1700519;84;21060;-40
2022/10/21 08:04:23;;;;;;;5.95;3.95;;;;;;;6.08;66.19;100406.87;1710391;83;20949;-40
2022/10/21 08:06:50;;;;;;;;;;;;;;;6.16;66.19;100419.59;1703383;84;21175;-40
2022/10/21 08:09:18;;;;;;;8.25;4.60;;;;;;;6.24;66.03;100421.58;1700544;84;20187;-40
2022/10/21 08:11:44;;;;;;;7.85;5.95;;;;;;;6.22;66.21;100410.31;1710142;83;21147;-40
2022/10/21 08:14:11;;;;;;;5.30;3.50;;;;;;;6.32;66.11;100410.08;1700397;84;21511;-40
2022/10/21 08:16:40;;;;;;;6.92;3.65;;;;;;;6.44;66.02;100417.05;1710185;83;20976;-39
2022/10/21 08:19:07;;;;;;;4.10;3.37;;;;;;;6.51;65.73;100406.65;1700623;84;21005;-39
2022/10/21 08:21:34;;;;;;;4.75;3.17;;;;;;;6.61;65.75;100410.99;1710086;83;21016;-40
2022/10/21 08:24:01;;;;;;;4.60;3.12;;;;;;;6.72;65.66;100399.41;1700430;84;23171;-40
2022/10/21 08:26:29;;;;;;;57.35;44.42;;;;;;;6.89;65.56;100395.45;1710263;83;21525;-40
2022/10/21 08:28:56;;;;;;;8.83;4.12;;;;;;;7.07;64.81;100393.08;1700374;83;21096;-40
2022/10/21 08:31:23;;;;;;;5.80;3.35;;;;;;;7.20;64.49;100396.25;1710279;83;21032;-40
2022/10/21 08:33:49;;;;;;;6.17;4.33;;;;;;;7.25;63.64;100393.41;1700514;84;21646;-40
2022/10/21 08:36:20;;;;;;;5.65;4.58;;;;;;;7.29;63.78;100405.72;1710222;83;21203;-40
2022/10/21 08:38:47;;;;;;;5.45;3.95;;;;;;;7.36;63.33;100408.73;1700754;84;20961;-40
2022/10/21 08:41:31;;;;;;;5.83;3.33;;;;;;;7.38;63.17;100405.98;1710345;83;21005;-40
2022/10/21 08:44:34;;;;;;;5.78;3.37;;;;;;;7.39;62.64;100398.69;1700808;84;21570;-40
2022/10/21 08:47:12;;;;;;;4.05;2.85;;;;;;;7.33;62.67;100410.17;1710342;83;21040;-40
2022/10/21 08:50:03;;;;;;;5.53;3.08;;;;;;;7.26;62.97;100413.86;1682081;85;21088;-40
2022/10/21 08:52:41;;;;;;;4.60;3.02;;;;;;;7.23;62.98;100407.75;1710312;83;20997;-40
2022/10/21 08:55:39;;;;;;;4.85;3.20;;;;;;;7.23;62.98;100415.05;1700522;84;21047;-40
2022/10/21 08:58:17;;;;;;;5.40;3.65;;;;;;;7.26;63.06;100409.05;1710162;83;21041;-40
2022/10/21 09:01:04;;;;;;;7.62;4.00;;;;;;;7.34;63.07;100402.33;1681573;85;21557;-40
2022/10/21 09:03:56;;;;;;;17.67;10.98;;;;;;;7.39;62.68;100405.44;1700461;84;21970;-40
2022/10/21 09:07:18;;;;;;;12.68;6.15;;;;;;;7.38;62.32;100407.34;1709450;83;20941;-40
2022/10/21 09:09:58;;;;;;;5.95;4.20;;;;;;;7.38;62.21;100407.34;1700534;84;21035;-40
2022/10/21 09:12:40;;;;;;;5.22;3.33;;;;;;;7.37;61.95;100404.94;1710319;83;21068;-40
2022/10/21 09:15:26;;;;;;;4.10;2.87;;;;;;;7.40;62.18;100413.22;1699719;84;20993;-40
2022/10/21 09:18:26;;;;;;;4.67;2.90;;;;;;;7.45;61.50;100410.14;1710089;83;23135;-40
2022/10/21 09:21:01;;;;;;;4.95;2.92;;;;;;;7.42;61.40;100408.30;1681677;85;21680;-40
2022/10/21 09:24:01;;;;;;;8.00;2.92;;;;;;;7.50;61.65;100414.05;1700673;84;21079;-40
2022/10/21 09:26:40;;;;;;;;;;;;;;;7.55;61.54;100415.25;1712961;83;21013;-39
2022/10/21 09:29:33;;;;;;;8.88;5.00;;;;;;;7.58;61.29;100410.56;1681265;85;20211;-40
2022/10/21 09:32:13;;;;;;;6.33;3.90;;;;;;;7.53;61.16;100401.27;1734939;82;21229;-40
2022/10/21 09:34:48;;;;;;;8.18;3.87;;;;;;;7.60;61.06;100397.56;1734764;82;20998;-40
2022/10/21 09:37:39;;;;;;;6.12;3.92;;;;;;;7.71;60.95;100396.14;1699611;84;21371;-40
2022/10/21 09:40:14;;;;;;;5.35;3.87;;;;;;;7.82;60.56;100391.48;1694747;84;21655;-40
2022/10/21 09:42:40;;;;;;;5.90;4.15;;;;;;;7.90;60.40;100383.14;1694970;84;21093;-40
2022/10/21 09:45:24;;;;;;;4.97;3.42;;;;;;;7.97;60.44;100379.44;1694944;84;21080;-40
2022/10/21 09:48:02;;;;;;;7.78;5.45;;;;;;;8.07;59.55;100381.02;1694827;84;21068;-40
2022/10/21 09:50:29;;;;;;;7.62;5.15;;;;;;;8.12;58.08;100381.66;1680983;84;20989;-40
2022/10/21 09:53:10;;;;;;;7.05;5.20;;;;;;;8.13;57.22;100389.22;1690896;84;21036;-40
2022/10/21 09:55:40;;;;;;;9.35;5.55;;;;;;;8.15;57.22;100381.58;1694978;84;21563;-40
2022/10/21 09:58:07;;;;;;;13.10;9.03;;;;;;;8.17;57.56;100378.81;1695273;84;21295;-40
2022/10/21 10:00:45;;;;;;;14.35;9.93;;;;;;;8.26;57.94;100372.05;1675297;84;20958;-40
2022/10/21 10:03:12;;;;;;;13.85;9.58;;;;;;;8.39;57.42;100360.84;1707684;84;20970;-40
2022/10/21 10:05:46;;;;;;;11.68;8.30;;;;;;;8.51;57.23;100356.95;1707543;83;20951;-40
2022/10/21 10:08:39;;;;;;;7.45;3.75;;;;;;;8.63;56.78;100355.16;1707466;84;21081;-40
2022/10/21 10:11:16;;;;;;;4.90;3.42;;;;;;;8.70;55.66;100358.73;1707439;84;21159;-40
2022/10/21 10:13:51;;;;;;;4.37;3.00;;;;;;;8.73;56.22;100364.28;1707438;83;21001;-40
2022/10/21 10:16:27;;;;;;;4.22;2.90;;;;;;;8.78;55.69;100357.90;1707416;83;20996;-40
2022/10/21 10:19:24;;;;;;;3.90;2.75;;;;;;;8.88;56.09;100356.75;1707617;84;20980;-40
2022/10/21 10:22:12;;;;;;;3.22;1.90;;;;;;;9.00;55.10;100350.92;1707273;84;21065;-40
2022/10/21 10:24:41;;;;;;;4.45;2.20;;;;;;;9.09;54.28;100348.97;1707564;84;21117;-40
2022/10/21 10:27:16;;;;;;;3.17;1.82;;;;;;;9.11;53.55;100333.19;1707276;84;20985;-40
2022/10/21 10:29:43;;;;;;;5.95;4.05;;;;;;;9.20;53.48;100340.49;1706918;83;21163;-40
2022/10/21 10:32:13;;;;;;;3.20;2.10;;;;;;;9.24;53.46;100346.27;1656781;84;21041;-40
2022/10/21 10:34:55;;;;;;;5.65;2.62;;;;;;;9.28;54.01;100335.59;1707332;83;21021;-40
2022/10/21 10:37:25;;;;;;;7.15;2.42;;;;;;;9.37;54.06;100337.12;1707590;84;21262;-40
2022/10/21 10:39:55;;;;;;;5.42;2.55;;;;;;;9.45;54.20;100336.83;1707845;84;20954;-40
2022/10/21 10:42:24;;;;;;;3.65;2.25;;;;;;;9.56;54.15;100329.92;1679062;85;21022;-40
2022/10/21 10:44:57;;;;;;;4.08;2.08;;;;;;;9.64;53.05;100330.97;1679439;85;21040;-40
2022/10/21 10:47:29;;;;;;;3.05;2.00;;;;;;;9.71;52.76;100327.98;1679056;85;21011;-40
2022/10/21 10:49:56;;;;;;;3.02;2.00;;;;;;;9.76;52.15;100323.73;1678953;85;21870;-40
2022/10/21 10:52:23;;;;;;;3.45;2.25;;;;;;;9.83;51.61;100318.55;1678878;85;21490;-40
2022/10/21 10:55:13;;;;;;;3.90;2.62;;;;;;;9.88;52.11;100312.94;1678842;85;21437;-40
2022/10/21 10:57:42;;;;;;;3.08;2.05;;;;;;;9.98;51.30;100312.54;1661975;85;20962;-40
2022/10/21 11:00:21;;;;;;;2.80;2.02;;;;;;;10.08;50.58;100310.55;1678900;85;21069;-40
2022/10/21 11:03:02;;;;;;;3.83;2.58;;;;;;;10.13;50.03;100311.14;1678767;85;21138;-40
2022/10/21 11:05:45;;;;;;;4.62;2.62;;;;;;;10.19;50.64;100311.75;1678945;85;21062;-40
2022/10/21 11:08:34;;;;;;;4.12;2.40;;;;;;;10.26;49.70;100301.18;1679089;85;20958;-40
2022/10/21 11:11:06;;;;;;;3.05;2.15;;;;;;;10.32;49.25;100292.48;1678896;85;20982;-40
2022/10/21 11:13:37;;;;;;;2.60;1.90;;;;;;;10.37;48.44;100284.70;1678844;85;21105;-40
2022/10/21 11:16:36;;;;;;;3.77;2.65;;;;;;;10.32;48.50;100288.98;1630306;85;21109;-40
2022/10/21 11:19:17;;;;;;;;;;;;;;;10.27;47.97;100283.77;1681593;85;21020;-40
2022/10/21 11:21:54;;;;;;;5.33;2.35;;;;;;;10.20;47.68;100279.47;1679124;85;20426;-40
2022/10/21 11:25:05;;;;;;;4.35;2.50;;;;;;;10.02;47.89;100276.89;1649492;85;21014;-40
2022/10/21 11:27:48;;;;;;;4.55;2.40;;;;;;;10.01;48.86;100276.68;1679271;85;21101;-40
2022/10/21 11:30:20;;;;;;;2.62;2.08;;;;;;;10.09;48.01;100276.36;1678853;85;21280;-40
2022/10/21 11:33:32;;;;;;;3.10;2.52;;;;;;;10.15;47.07;100270.17;1678759;85;21036;-40
2022/10/21 11:36:41;;;;;;;9.70;7.70;;;;;;;10.13;46.93;100273.20;1678994;85;21002;-40
2022/10/21 11:39:38;;;;;;;4.13;3.23;;;;;;;10.14;47.25;100276.15;1679118;85;21034;-41
2022/10/21 11:42:22;;;;;;;13.00;10.82;;;;;;;10.18;46.70;100267.61;1678881;85;21057;-40
2022/10/21 11:45:13;;;;;;;20.45;17.12;;;;;;;10.19;46.75;100256.20;1678904;85;23150;-40
2022/10/21 11:47:45;;;;;;;11.40;10.30;;;;;;;10.16;46.53;100251.47;1678759;85;20990;-40
2022/10/21 11:50:33;;;;;;;5.47;4.47;;;;;;;10.10;46.41;100254.13;1678826;85;20958;-40
2022/10/21 11:53:11;;;;;;;4.92;2.60;;;;;;;10.09;46.46;100256.59;1678835;85;21536;-40
2022/10/21 11:55:50;;;;;;;3.47;2.05;;;;;;;10.09;46.63;100252.53;1678861;85;21033;-40
2022/10/21 11:58:45;;;;;;;2.95;2.15;;;;;;;10.07;45.95;100256.16;1679072;85;22020;-40